Flight Track Log - Related Links

Times and Time Zones

All times are in EDT time to prevent confusion due to time zone crossing. See the ASQ2542 flight status page for this flight to view local times or setup timezone preferences in your user account.

Time Position Orientation Groundspeed Altitude Reporting Facility
EDT Latitude Longitude Course Direction KTS MPH feet Rate Location/Type
Fri 02:21:43 PM 27.7581 -97.4928 300° West 145 167 600  Level Houston Center
Fri 02:22:26 PM 27.7292 -97.4992 191° South 182 209 1,600 1,748 Climbing Houston Center
Fri 02:23:26 PM 27.7569 -97.5617 297° West 246 283 3,600 2,311 Climbing Houston Center
Fri 02:24:28 PM 27.8219 -97.6189 322° Northwest 280 322 6,300 2,301 Climbing Houston Center
Fri 02:25:39 PM 27.8861 -97.6742 323° Northwest 282 325 8,700 2,301 Climbing Houston Center
Fri 02:26:41 PM 27.9650 -97.7442 322° Northwest 289 333 11,400 1,935 Climbing Houston Center
Fri 02:27:00 PM 28.0865 -97.8896 300° West  Level FlightAware Approximate
Fri 02:27:43 PM 28.0333 -97.8050 322° Northwest 297 342 12,700  Level Houston Center
Fri 02:28:45 PM 28.0942 -97.8861 310° West 324 373 13,700 1,016 Climbing Houston Center
Fri 02:29:47 PM 28.1467 -97.9803 302° West 349 402 14,800 1,258 Climbing Houston Center
Fri 02:30:49 PM 28.2447 -98.0283 337° Northwest 372 428 16,300 1,403 Climbing Houston Center
Fri 02:31:51 PM 28.3392 -98.0717 338° Northwest 373 429 17,700 1,296 Climbing Houston Center
Fri 02:32:54 PM 28.4597 -98.1281 338° Northwest 386 444 19,000 1,152 Climbing Houston Center
Fri 02:33:56 PM 28.5653 -98.1667 342° North 397 457 20,100 1,065 Climbing Houston Center
Fri 02:34:58 PM 28.6736 -98.1953 347° North 400 460 21,200 968 Climbing Houston Center
Fri 02:36:00 PM 28.7903 -98.2286 346° North 401 461 22,100 726 Climbing Houston Center
Fri 02:37:02 PM 28.9117 -98.2611 347° North 413 475 22,700 774 Climbing Houston Center
Fri 02:38:04 PM 29.0250 -98.2919 347° North 417 480 23,700 1,016 Climbing Houston Center
Fri 02:39:06 PM 29.1458 -98.3250 347° North 414 476 24,800 919 Climbing Houston Center
Fri 02:40:08 PM 29.2569 -98.3550 347° North 411 473 25,600 629 Climbing Houston Center
Fri 02:41:10 PM 29.3781 -98.3875 347° North 414 476 26,100 480 Climbing Houston Center
Fri 02:42:13 PM 29.4933 -98.4181 347° North 425 489 26,600 432 Climbing Houston Center
Fri 02:43:15 PM 29.5994 -98.4483 346° North 429 494 27,000 194 Climbing Houston Center
Fri 02:44:17 PM 29.7417 -98.4469 360° North 488 562 27,000  Level Houston Center
Fri 02:45:19 PM 29.8783 -98.4269 North 471 542 27,000  Level Houston Center
Fri 02:46:21 PM 30.0150 -98.4069 North 477 549 27,000  Level Houston Center
Fri 02:47:23 PM 30.1572 -98.3856 North 480 552 27,000  Level Houston Center
Fri 02:48:25 PM 30.2900 -98.3661 North 484 557 27,000  Level Houston Center
Fri 02:49:27 PM 30.4258 -98.3469 North 487 560 27,000  Level Houston Center
Fri 02:50:30 PM 30.5611 -98.3269 North 486 559 27,000  Level Houston Center
Fri 02:51:32 PM 30.6969 -98.3067 North 485 558 27,000  Level Houston Center
Fri 02:52:34 PM 30.8339 -98.2861 North 487 560 27,000  Level Houston Center
Fri 02:53:32 PM 30.9786 -98.2661 North 490 564 27,000  Level Fort Worth Center
Fri 02:54:32 PM 31.1144 -98.2481 North 501 577 27,000 -350 Level Fort Worth Center
Fri 02:55:32 PM 31.2481 -98.2272 North 489 563 26,300 -900 Descending Fort Worth Center
Fri 02:56:32 PM 31.3839 -98.2067 North 489 563 25,200 -1,050 Descending Fort Worth Center
Fri 02:57:32 PM 31.5136 -98.1639 16° North 484 557 24,200 -600 Descending Fort Worth Center
Fri 02:58:32 PM 31.6353 -98.0819 30° Northeast 484 557 24,000 -101 Descending Fort Worth Center
Fri 02:59:31 PM 31.7567 -97.9997 30° Northeast 494 568 24,000  Level Fort Worth Center
Fri 03:00:32 PM 31.8614 -97.9294 30° Northeast 494 568 24,000 -1,200 Level Fort Worth Center
Fri 03:01:31 PM 31.9892 -97.8394 31° Northeast 494 568 21,600 -2,521 Descending Fort Worth Center
Fri 03:02:31 PM 32.0939 -97.7664 31° Northeast 484 557 19,000 -2,678 Descending Fort Worth Center
Fri 03:03:32 PM 32.2108 -97.6883 29° Northeast 455 524 16,200 -2,380 Descending Fort Worth Center
Fri 03:04:32 PM 32.2986 -97.6272 30° Northeast 421 484 14,200 -2,100 Descending Fort Worth Center
Fri 03:05:32 PM 32.4053 -97.5536 30° Northeast 409 471 12,000 -1,600 Descending Fort Worth Center
Fri 03:06:32 PM 32.4931 -97.4775 36° Northeast 395 455 11,000 -500 Descending Fort Worth Center
Fri 03:07:32 PM 32.5683 -97.3889 45° Northeast 385 443 11,000  Level Fort Worth Center
Fri 03:08:32 PM 32.6350 -97.3097 45° Northeast 347 399 11,000  Level Fort Worth Center
Fri 03:09:32 PM 32.6872 -97.2456 46° Northeast 294 338 11,000  Level Fort Worth Center
Fri 03:10:32 PM 32.7392 -97.1836 45° Northeast 260 299 11,000 -300 Level Fort Worth Center
Fri 03:11:32 PM 32.7997 -97.1686 12° North 239 275 10,400 -1,100 Descending Fort Worth Center
Fri 03:12:32 PM 32.8686 -97.1661 North 239 275 8,800 -1,500 Descending Fort Worth Center
Fri 03:13:32 PM 32.9375 -97.1658 360° North 244 281 7,400 -1,600 Descending Fort Worth Center
Fri 03:14:32 PM 33.0022 -97.1583 North 239 275 5,600 -1,600 Descending Fort Worth Center
Fri 03:15:32 PM 33.0544 -97.1258 28° Northeast 189 217 4,200 -1,500 Descending Fort Worth Center
Fri 03:15:52 PM 33.0500 -97.1000 102° East 212 244 3,600 -1,459 Descending Dallas / Fort Worth TRACON
Fri 03:16:46 PM 33.0167 -97.0500 128° Southeast 202 232 2,400 -1,000 Descending Dallas / Fort Worth TRACON
Fri 03:17:52 PM 32.9667 -97.0500 180° South 145 167 1,600 -700 Descending Dallas / Fort Worth TRACON
Fri 03:18:46 PM 32.9333 -97.0500 180° South 149 171 1,000 -667 Descending Dallas / Fort Worth TRACON

Login

Don't have an account? Register now (free) for customized features, flight alerts, and more!